sensor_id;sensor_type;location;lat;lon;timestamp;temperature;humidity
80367;DHT22;70058;42.660;23.366;2023-06-14T00:00:51;19.30;69.60
80367;DHT22;70058;42.660;23.366;2023-06-14T00:03:18;19.30;69.60
80367;DHT22;70058;42.660;23.366;2023-06-14T00:05:47;19.30;69.60
80367;DHT22;70058;42.660;23.366;2023-06-14T00:08:13;19.30;69.50
80367;DHT22;70058;42.660;23.366;2023-06-14T00:10:40;19.30;69.60
80367;DHT22;70058;42.660;23.366;2023-06-14T00:13:08;19.30;69.60
80367;DHT22;70058;42.660;23.366;2023-06-14T00:15:34;19.30;69.40
80367;DHT22;70058;42.660;23.366;2023-06-14T00:18:01;19.30;69.40
80367;DHT22;70058;42.660;23.366;2023-06-14T00:20:28;19.30;69.40
80367;DHT22;70058;42.660;23.366;2023-06-14T00:22:54;19.30;69.50
80367;DHT22;70058;42.660;23.366;2023-06-14T00:25:23;19.30;69.60
80367;DHT22;70058;42.660;23.366;2023-06-14T00:27:53;19.20;69.80
80367;DHT22;70058;42.660;23.366;2023-06-14T00:30:19;19.20;69.60
80367;DHT22;70058;42.660;23.366;2023-06-14T00:32:45;19.20;69.50
80367;DHT22;70058;42.660;23.366;2023-06-14T00:35:11;19.30;69.60
80367;DHT22;70058;42.660;23.366;2023-06-14T00:37:37;19.30;69.30
80367;DHT22;70058;42.660;23.366;2023-06-14T00:40:04;19.20;69.50
80367;DHT22;70058;42.660;23.366;2023-06-14T00:42:31;19.20;69.50
80367;DHT22;70058;42.660;23.366;2023-06-14T00:44:57;19.30;69.60
80367;DHT22;70058;42.660;23.366;2023-06-14T00:47:23;19.20;69.50
80367;DHT22;70058;42.660;23.366;2023-06-14T00:49:53;19.20;69.80
80367;DHT22;70058;42.660;23.366;2023-06-14T00:52:19;19.20;69.90
80367;DHT22;70058;42.660;23.366;2023-06-14T00:54:46;19.10;69.90
80367;DHT22;70058;42.660;23.366;2023-06-14T00:57:12;19.10;69.90
80367;DHT22;70058;42.660;23.366;2023-06-14T01:02:08;19.10;70.10
80367;DHT22;70058;42.660;23.366;2023-06-14T01:04:33;19.10;70.10
80367;DHT22;70058;42.660;23.366;2023-06-14T01:07:12;19.10;70.00
80367;DHT22;70058;42.660;23.366;2023-06-14T01:12:16;19.00;70.10
80367;DHT22;70058;42.660;23.366;2023-06-14T01:14:42;19.00;69.80
80367;DHT22;70058;42.660;23.366;2023-06-14T01:17:09;19.00;69.70
80367;DHT22;70058;42.660;23.366;2023-06-14T01:19:42;19.00;69.90
80367;DHT22;70058;42.660;23.366;2023-06-14T01:22:08;19.00;70.10
80367;DHT22;70058;42.660;23.366;2023-06-14T01:24:34;19.00;69.90
80367;DHT22;70058;42.660;23.366;2023-06-14T01:27:00;19.00;70.10
80367;DHT22;70058;42.660;23.366;2023-06-14T01:29:28;19.00;70.20
80367;DHT22;70058;42.660;23.366;2023-06-14T01:31:59;19.00;70.20
80367;DHT22;70058;42.660;23.366;2023-06-14T01:34:25;19.10;69.90
80367;DHT22;70058;42.660;23.366;2023-06-14T01:36:52;19.10;69.80
80367;DHT22;70058;42.660;23.366;2023-06-14T01:39:20;19.10;69.60
80367;DHT22;70058;42.660;23.366;2023-06-14T01:41:47;19.10;70.50
80367;DHT22;70058;42.660;23.366;2023-06-14T01:44:16;19.10;69.70
80367;DHT22;70058;42.660;23.366;2023-06-14T01:46:43;19.00;70.60
80367;DHT22;70058;42.660;23.366;2023-06-14T01:49:10;19.10;69.60
80367;DHT22;70058;42.660;23.366;2023-06-14T01:51:35;19.00;69.50
80367;DHT22;70058;42.660;23.366;2023-06-14T01:54:01;19.10;69.00
80367;DHT22;70058;42.660;23.366;2023-06-14T01:56:27;19.10;68.70
80367;DHT22;70058;42.660;23.366;2023-06-14T01:58:53;19.10;69.10
80367;DHT22;70058;42.660;23.366;2023-06-14T02:01:19;19.00;69.30
80367;DHT22;70058;42.660;23.366;2023-06-14T02:03:47;19.10;69.30
80367;DHT22;70058;42.660;23.366;2023-06-14T02:06:13;19.10;69.30
80367;DHT22;70058;42.660;23.366;2023-06-14T02:08:41;19.10;69.10
80367;DHT22;70058;42.660;23.366;2023-06-14T02:11:07;19.10;68.90
80367;DHT22;70058;42.660;23.366;2023-06-14T02:13:33;19.10;68.90
80367;DHT22;70058;42.660;23.366;2023-06-14T02:16:00;19.10;68.90
80367;DHT22;70058;42.660;23.366;2023-06-14T02:18:26;19.10;70.00
80367;DHT22;70058;42.660;23.366;2023-06-14T02:20:51;19.10;69.20
80367;DHT22;70058;42.660;23.366;2023-06-14T02:23:17;19.10;69.00
80367;DHT22;70058;42.660;23.366;2023-06-14T02:25:43;19.00;68.90
80367;DHT22;70058;42.660;23.366;2023-06-14T02:28:10;19.00;69.30
80367;DHT22;70058;42.660;23.366;2023-06-14T02:30:36;19.00;69.90
80367;DHT22;70058;42.660;23.366;2023-06-14T02:33:01;19.00;69.10
80367;DHT22;70058;42.660;23.366;2023-06-14T02:35:29;19.00;69.20
80367;DHT22;70058;42.660;23.366;2023-06-14T02:37:55;18.90;69.10
80367;DHT22;70058;42.660;23.366;2023-06-14T02:40:20;18.90;69.20
80367;DHT22;70058;42.660;23.366;2023-06-14T02:42:46;18.90;69.20
80367;DHT22;70058;42.660;23.366;2023-06-14T02:45:12;18.90;69.30
80367;DHT22;70058;42.660;23.366;2023-06-14T02:47:38;18.90;69.20
80367;DHT22;70058;42.660;23.366;2023-06-14T02:50:04;18.90;69.30
80367;DHT22;70058;42.660;23.366;2023-06-14T02:52:29;18.90;69.40
80367;DHT22;70058;42.660;23.366;2023-06-14T02:54:55;18.80;69.40
80367;DHT22;70058;42.660;23.366;2023-06-14T02:57:22;18.70;69.50
80367;DHT22;70058;42.660;23.366;2023-06-14T02:59:48;18.60;69.60
80367;DHT22;70058;42.660;23.366;2023-06-14T03:02:14;18.60;69.70
80367;DHT22;70058;42.660;23.366;2023-06-14T03:04:40;18.50;69.90
80367;DHT22;70058;42.660;23.366;2023-06-14T03:07:06;18.40;70.20
80367;DHT22;70058;42.660;23.366;2023-06-14T03:09:37;18.40;70.30
80367;DHT22;70058;42.660;23.366;2023-06-14T03:12:04;18.40;70.50
80367;DHT22;70058;42.660;23.366;2023-06-14T03:14:32;18.30;70.70
80367;DHT22;70058;42.660;23.366;2023-06-14T03:16:57;18.30;70.80
80367;DHT22;70058;42.660;23.366;2023-06-14T03:19:24;18.30;70.70
80367;DHT22;70058;42.660;23.366;2023-06-14T03:21:52;18.40;70.90
80367;DHT22;70058;42.660;23.366;2023-06-14T03:24:19;18.40;70.80
80367;DHT22;70058;42.660;23.366;2023-06-14T03:26:45;18.50;70.60
80367;DHT22;70058;42.660;23.366;2023-06-14T03:29:11;18.60;70.40
80367;DHT22;70058;42.660;23.366;2023-06-14T03:31:41;18.70;70.10
80367;DHT22;70058;42.660;23.366;2023-06-14T03:34:06;18.80;69.90
80367;DHT22;70058;42.660;23.366;2023-06-14T03:36:32;18.90;69.70
80367;DHT22;70058;42.660;23.366;2023-06-14T03:38:59;19.00;69.10
80367;DHT22;70058;42.660;23.366;2023-06-14T03:41:24;19.10;68.80
80367;DHT22;70058;42.660;23.366;2023-06-14T03:43:51;19.10;68.90
80367;DHT22;70058;42.660;23.366;2023-06-14T03:46:17;19.20;68.80
80367;DHT22;70058;42.660;23.366;2023-06-14T03:48:43;19.20;68.80
80367;DHT22;70058;42.660;23.366;2023-06-14T03:51:08;19.20;68.60
80367;DHT22;70058;42.660;23.366;2023-06-14T03:53:35;19.30;68.30
80367;DHT22;70058;42.660;23.366;2023-06-14T03:56:01;19.40;68.10
80367;DHT22;70058;42.660;23.366;2023-06-14T03:58:27;19.40;67.80
80367;DHT22;70058;42.660;23.366;2023-06-14T04:00:53;19.50;67.70
80367;DHT22;70058;42.660;23.366;2023-06-14T04:03:19;19.60;67.60
80367;DHT22;70058;42.660;23.366;2023-06-14T04:05:45;19.70;67.20
80367;DHT22;70058;42.660;23.366;2023-06-14T04:08:14;19.70;66.80
80367;DHT22;70058;42.660;23.366;2023-06-14T04:10:41;19.90;66.50
80367;DHT22;70058;42.660;23.366;2023-06-14T04:13:07;20.10;66.30
80367;DHT22;70058;42.660;23.366;2023-06-14T04:15:32;20.30;65.60
80367;DHT22;70058;42.660;23.366;2023-06-14T04:17:59;20.50;65.00
80367;DHT22;70058;42.660;23.366;2023-06-14T04:20:25;20.60;64.40
80367;DHT22;70058;42.660;23.366;2023-06-14T04:22:52;20.90;64.50
80367;DHT22;70058;42.660;23.366;2023-06-14T04:25:18;21.50;62.70
80367;DHT22;70058;42.660;23.366;2023-06-14T04:27:44;22.20;61.40
80367;DHT22;70058;42.660;23.366;2023-06-14T04:30:10;23.00;59.10
80367;DHT22;70058;42.660;23.366;2023-06-14T04:32:36;23.80;56.60
80367;DHT22;70058;42.660;23.366;2023-06-14T04:35:08;24.50;55.00
80367;DHT22;70058;42.660;23.366;2023-06-14T04:37:34;25.40;52.60
80367;DHT22;70058;42.660;23.366;2023-06-14T04:40:01;26.40;50.40
80367;DHT22;70058;42.660;23.366;2023-06-14T04:42:32;27.40;47.60
80367;DHT22;70058;42.660;23.366;2023-06-14T04:44:58;27.60;46.20
80367;DHT22;70058;42.660;23.366;2023-06-14T04:47:24;27.30;46.30
80367;DHT22;70058;42.660;23.366;2023-06-14T04:49:57;27.00;46.90
80367;DHT22;70058;42.660;23.366;2023-06-14T04:52:23;26.50;47.00
80367;DHT22;70058;42.660;23.366;2023-06-14T04:54:52;26.10;48.20
80367;DHT22;70058;42.660;23.366;2023-06-14T04:57:22;25.80;48.60
80367;DHT22;70058;42.660;23.366;2023-06-14T04:59:50;25.50;49.50
80367;DHT22;70058;42.660;23.366;2023-06-14T05:02:24;25.40;49.90
80367;DHT22;70058;42.660;23.366;2023-06-14T05:04:51;25.20;50.30
80367;DHT22;70058;42.660;23.366;2023-06-14T05:07:17;25.10;50.00
80367;DHT22;70058;42.660;23.366;2023-06-14T05:09:46;24.90;50.30
80367;DHT22;70058;42.660;23.366;2023-06-14T05:12:15;24.80;50.50
80367;DHT22;70058;42.660;23.366;2023-06-14T05:14:45;24.80;50.80
80367;DHT22;70058;42.660;23.366;2023-06-14T05:17:11;24.70;51.20
80367;DHT22;70058;42.660;23.366;2023-06-14T05:19:37;24.70;51.10
80367;DHT22;70058;42.660;23.366;2023-06-14T05:22:15;24.80;50.40
80367;DHT22;70058;42.660;23.366;2023-06-14T05:24:41;25.00;50.00
80367;DHT22;70058;42.660;23.366;2023-06-14T05:27:13;25.10;50.40
80367;DHT22;70058;42.660;23.366;2023-06-14T05:29:45;25.30;50.00
80367;DHT22;70058;42.660;23.366;2023-06-14T05:32:17;25.40;50.20
80367;DHT22;70058;42.660;23.366;2023-06-14T05:34:45;25.30;49.00
80367;DHT22;70058;42.660;23.366;2023-06-14T05:37:11;25.20;49.30
80367;DHT22;70058;42.660;23.366;2023-06-14T05:39:38;25.10;49.70
80367;DHT22;70058;42.660;23.366;2023-06-14T05:42:05;25.00;50.00
80367;DHT22;70058;42.660;23.366;2023-06-14T05:44:33;24.90;50.10
80367;DHT22;70058;42.660;23.366;2023-06-14T05:46:58;24.80;50.50
80367;DHT22;70058;42.660;23.366;2023-06-14T05:49:24;24.60;51.20
80367;DHT22;70058;42.660;23.366;2023-06-14T05:51:50;24.50;51.70
80367;DHT22;70058;42.660;23.366;2023-06-14T05:54:17;24.40;51.70
80367;DHT22;70058;42.660;23.366;2023-06-14T05:56:44;24.30;52.40
80367;DHT22;70058;42.660;23.366;2023-06-14T05:59:12;24.20;52.10
80367;DHT22;70058;42.660;23.366;2023-06-14T06:01:44;24.10;52.60
80367;DHT22;70058;42.660;23.366;2023-06-14T06:04:14;24.00;53.40
80367;DHT22;70058;42.660;23.366;2023-06-14T06:06:41;24.00;53.40
80367;DHT22;70058;42.660;23.366;2023-06-14T06:09:08;24.00;53.50
80367;DHT22;70058;42.660;23.366;2023-06-14T06:11:34;24.10;52.80
80367;DHT22;70058;42.660;23.366;2023-06-14T06:14:14;24.10;52.90
80367;DHT22;70058;42.660;23.366;2023-06-14T06:16:44;24.10;52.80
80367;DHT22;70058;42.660;23.366;2023-06-14T06:19:12;24.00;53.40
80367;DHT22;70058;42.660;23.366;2023-06-14T06:21:38;24.00;53.50
80367;DHT22;70058;42.660;23.366;2023-06-14T06:24:06;23.90;54.00
80367;DHT22;70058;42.660;23.366;2023-06-14T06:26:33;23.80;54.80
80367;DHT22;70058;42.660;23.366;2023-06-14T06:29:02;23.70;54.00
80367;DHT22;70058;42.660;23.366;2023-06-14T06:31:32;23.70;54.30
80367;DHT22;70058;42.660;23.366;2023-06-14T06:33:59;23.60;54.40
80367;DHT22;70058;42.660;23.366;2023-06-14T06:36:25;23.70;54.40
80367;DHT22;70058;42.660;23.366;2023-06-14T06:38:51;23.80;53.70
80367;DHT22;70058;42.660;23.366;2023-06-14T06:41:18;24.00;53.20
80367;DHT22;70058;42.660;23.366;2023-06-14T06:43:47;24.20;52.80
80367;DHT22;70058;42.660;23.366;2023-06-14T06:46:14;24.30;52.10
80367;DHT22;70058;42.660;23.366;2023-06-14T06:48:39;24.60;51.80
80367;DHT22;70058;42.660;23.366;2023-06-14T06:51:05;24.80;51.20
80367;DHT22;70058;42.660;23.366;2023-06-14T06:53:37;25.10;49.70
80367;DHT22;70058;42.660;23.366;2023-06-14T06:56:04;25.30;49.80
80367;DHT22;70058;42.660;23.366;2023-06-14T06:58:30;25.60;48.90
80367;DHT22;70058;42.660;23.366;2023-06-14T07:00:57;26.00;49.00
80367;DHT22;70058;42.660;23.366;2023-06-14T07:03:23;26.50;47.70
80367;DHT22;70058;42.660;23.366;2023-06-14T07:05:48;27.70;45.30
80367;DHT22;70058;42.660;23.366;2023-06-14T07:08:16;28.70;43.30
80367;DHT22;70058;42.660;23.366;2023-06-14T07:10:49;29.20;41.80
80367;DHT22;70058;42.660;23.366;2023-06-14T07:13:15;29.90;39.60
80367;DHT22;70058;42.660;23.366;2023-06-14T07:15:43;30.20;39.70
80367;DHT22;70058;42.660;23.366;2023-06-14T07:18:13;30.40;38.80
80367;DHT22;70058;42.660;23.366;2023-06-14T07:20:46;30.80;38.30
80367;DHT22;70058;42.660;23.366;2023-06-14T07:23:28;30.70;38.50
80367;DHT22;70058;42.660;23.366;2023-06-14T07:25:55;30.40;38.20
80367;DHT22;70058;42.660;23.366;2023-06-14T07:28:23;30.00;38.50
80367;DHT22;70058;42.660;23.366;2023-06-14T07:30:51;29.60;39.60
80367;DHT22;70058;42.660;23.366;2023-06-14T07:33:22;28.30;40.80
80367;DHT22;70058;42.660;23.366;2023-06-14T07:35:49;26.70;44.60
80367;DHT22;70058;42.660;23.366;2023-06-14T07:38:21;27.30;43.90
80367;DHT22;70058;42.660;23.366;2023-06-14T07:40:47;27.80;43.00
80367;DHT22;70058;42.660;23.366;2023-06-14T07:43:14;26.90;43.40
80367;DHT22;70058;42.660;23.366;2023-06-14T07:45:41;27.30;45.00
80367;DHT22;70058;42.660;23.366;2023-06-14T07:48:07;27.40;43.80
80367;DHT22;70058;42.660;23.366;2023-06-14T07:50:35;27.70;44.30
80367;DHT22;70058;42.660;23.366;2023-06-14T07:53:02;28.00;43.20
80367;DHT22;70058;42.660;23.366;2023-06-14T07:55:28;28.30;42.80
80367;DHT22;70058;42.660;23.366;2023-06-14T07:57:54;28.60;41.80
80367;DHT22;70058;42.660;23.366;2023-06-14T08:00:20;28.90;40.70
80367;DHT22;70058;42.660;23.366;2023-06-14T08:05:16;29.50;40.00
80367;DHT22;70058;42.660;23.366;2023-06-14T08:07:48;30.20;38.30
80367;DHT22;70058;42.660;23.366;2023-06-14T08:10:18;30.30;38.40
80367;DHT22;70058;42.660;23.366;2023-06-14T08:13:03;30.20;39.10
80367;DHT22;70058;42.660;23.366;2023-06-14T08:15:30;30.20;38.80
80367;DHT22;70058;42.660;23.366;2023-06-14T08:18:07;30.10;38.80
80367;DHT22;70058;42.660;23.366;2023-06-14T08:20:41;30.00;40.60
80367;DHT22;70058;42.660;23.366;2023-06-14T08:25:35;29.80;38.50
80367;DHT22;70058;42.660;23.366;2023-06-14T08:28:01;30.20;38.70
80367;DHT22;70058;42.660;23.366;2023-06-14T08:30:31;30.90;36.60
80367;DHT22;70058;42.660;23.366;2023-06-14T08:32:59;31.90;36.00
80367;DHT22;70058;42.660;23.366;2023-06-14T08:35:25;33.00;34.20
80367;DHT22;70058;42.660;23.366;2023-06-14T08:37:53;34.40;32.00
80367;DHT22;70058;42.660;23.366;2023-06-14T08:40:23;34.40;31.20
80367;DHT22;70058;42.660;23.366;2023-06-14T08:42:54;34.50;31.10
80367;DHT22;70058;42.660;23.366;2023-06-14T08:45:28;36.00;29.80
80367;DHT22;70058;42.660;23.366;2023-06-14T08:47:55;34.60;28.90
80367;DHT22;70058;42.660;23.366;2023-06-14T08:50:26;36.20;29.20
80367;DHT22;70058;42.660;23.366;2023-06-14T08:52:59;36.40;28.30
80367;DHT22;70058;42.660;23.366;2023-06-14T08:55:31;36.80;27.70
80367;DHT22;70058;42.660;23.366;2023-06-14T08:57:58;37.80;27.00
80367;DHT22;70058;42.660;23.366;2023-06-14T09:00:27;38.70;25.90
80367;DHT22;70058;42.660;23.366;2023-06-14T09:02:57;40.70;24.60
80367;DHT22;70058;42.660;23.366;2023-06-14T09:05:35;42.60;22.80
80367;DHT22;70058;42.660;23.366;2023-06-14T09:08:02;44.20;21.80
80367;DHT22;70058;42.660;23.366;2023-06-14T09:10:31;45.60;20.50
80367;DHT22;70058;42.660;23.366;2023-06-14T09:13:11;47.10;19.80
80367;DHT22;70058;42.660;23.366;2023-06-14T09:15:43;46.50;19.40
80367;DHT22;70058;42.660;23.366;2023-06-14T09:18:11;45.10;20.80
80367;DHT22;70058;42.660;23.366;2023-06-14T09:20:37;45.20;20.80
80367;DHT22;70058;42.660;23.366;2023-06-14T09:23:20;45.60;20.40
80367;DHT22;70058;42.660;23.366;2023-06-14T09:28:55;47.50;19.30
80367;DHT22;70058;42.660;23.366;2023-06-14T09:31:21;47.00;18.90
80367;DHT22;70058;42.660;23.366;2023-06-14T09:33:51;45.00;20.40
80367;DHT22;70058;42.660;23.366;2023-06-14T09:36:21;39.90;23.10
80367;DHT22;70058;42.660;23.366;2023-06-14T09:38:55;38.10;25.20
80367;DHT22;70058;42.660;23.366;2023-06-14T09:41:43;33.40;28.70
80367;DHT22;70058;42.660;23.366;2023-06-14T09:44:10;33.10;32.00
80367;DHT22;70058;42.660;23.366;2023-06-14T09:46:38;31.30;33.40
80367;DHT22;70058;42.660;23.366;2023-06-14T09:49:05;31.20;33.80
80367;DHT22;70058;42.660;23.366;2023-06-14T09:51:32;31.00;34.40
80367;DHT22;70058;42.660;23.366;2023-06-14T09:54:00;30.80;35.10
80367;DHT22;70058;42.660;23.366;2023-06-14T09:56:29;30.60;34.70
80367;DHT22;70058;42.660;23.366;2023-06-14T09:58:57;30.50;35.00
80367;DHT22;70058;42.660;23.366;2023-06-14T10:01:25;30.40;36.00
80367;DHT22;70058;42.660;23.366;2023-06-14T10:04:05;30.60;35.70
80367;DHT22;70058;42.660;23.366;2023-06-14T10:06:32;31.20;34.60
80367;DHT22;70058;42.660;23.366;2023-06-14T10:09:07;31.20;34.40
80367;DHT22;70058;42.660;23.366;2023-06-14T10:11:42;31.10;34.40
80367;DHT22;70058;42.660;23.366;2023-06-14T10:14:16;30.70;34.90
80367;DHT22;70058;42.660;23.366;2023-06-14T10:17:08;30.70;35.20
80367;DHT22;70058;42.660;23.366;2023-06-14T10:20:42;31.50;34.50
80367;DHT22;70058;42.660;23.366;2023-06-14T10:22:47;32.20;34.30
80367;DHT22;70058;42.660;23.366;2023-06-14T10:25:35;31.90;34.30
80367;DHT22;70058;42.660;23.366;2023-06-14T10:28:18;31.50;34.80
80367;DHT22;70058;42.660;23.366;2023-06-14T10:31:18;31.00;34.50
80367;DHT22;70058;42.660;23.366;2023-06-14T10:33:56;30.70;34.90
80367;DHT22;70058;42.660;23.366;2023-06-14T10:39:14;30.00;35.60
80367;DHT22;70058;42.660;23.366;2023-06-14T10:41:54;29.90;36.80
80367;DHT22;70058;42.660;23.366;2023-06-14T10:48:45;29.30;36.30
80367;DHT22;70058;42.660;23.366;2023-06-14T10:51:19;29.40;37.40
80367;DHT22;70058;42.660;23.366;2023-06-14T10:53:51;29.30;37.10
80367;DHT22;70058;42.660;23.366;2023-06-14T10:56:33;29.30;37.60
80367;DHT22;70058;42.660;23.366;2023-06-14T10:59:00;29.30;37.00
80367;DHT22;70058;42.660;23.366;2023-06-14T11:01:38;28.20;39.30
80367;DHT22;70058;42.660;23.366;2023-06-14T11:04:11;27.50;39.90
80367;DHT22;70058;42.660;23.366;2023-06-14T11:06:47;28.20;39.60
80367;DHT22;70058;42.660;23.366;2023-06-14T11:12:28;27.10;42.00
80367;DHT22;70058;42.660;23.366;2023-06-14T11:14:57;27.50;40.20
80367;DHT22;70058;42.660;23.366;2023-06-14T11:17:23;27.90;40.40
80367;DHT22;70058;42.660;23.366;2023-06-14T11:20:10;28.20;39.60
80367;DHT22;70058;42.660;23.366;2023-06-14T11:22:44;28.20;38.20
80367;DHT22;70058;42.660;23.366;2023-06-14T11:25:11;27.10;40.70
80367;DHT22;70058;42.660;23.366;2023-06-14T11:27:52;27.50;41.60
80367;DHT22;70058;42.660;23.366;2023-06-14T11:30:25;26.50;43.10
80367;DHT22;70058;42.660;23.366;2023-06-14T11:32:54;26.40;43.50
80367;DHT22;70058;42.660;23.366;2023-06-14T11:35:29;26.80;43.20
80367;DHT22;70058;42.660;23.366;2023-06-14T11:38:01;27.10;42.10
80367;DHT22;70058;42.660;23.366;2023-06-14T11:40:28;27.30;42.00
80367;DHT22;70058;42.660;23.366;2023-06-14T11:43:00;27.50;41.60
80367;DHT22;70058;42.660;23.366;2023-06-14T11:45:26;27.60;41.00
80367;DHT22;70058;42.660;23.366;2023-06-14T11:47:55;26.30;41.40
80367;DHT22;70058;42.660;23.366;2023-06-14T11:50:25;26.20;42.60
80367;DHT22;70058;42.660;23.366;2023-06-14T11:53:04;25.50;43.70
80367;DHT22;70058;42.660;23.366;2023-06-14T11:55:39;25.40;44.70
80367;DHT22;70058;42.660;23.366;2023-06-14T11:58:12;25.90;44.60
80367;DHT22;70058;42.660;23.366;2023-06-14T12:00:43;25.80;43.60
80367;DHT22;70058;42.660;23.366;2023-06-14T12:03:12;26.10;42.50
80367;DHT22;70058;42.660;23.366;2023-06-14T12:05:45;25.60;42.90
80367;DHT22;70058;42.660;23.366;2023-06-14T12:08:12;26.10;43.40
80367;DHT22;70058;42.660;23.366;2023-06-14T12:10:55;26.50;42.00
80367;DHT22;70058;42.660;23.366;2023-06-14T12:13:25;26.80;41.90
80367;DHT22;70058;42.660;23.366;2023-06-14T12:15:57;27.20;41.40
80367;DHT22;70058;42.660;23.366;2023-06-14T12:18:37;26.10;40.90
80367;DHT22;70058;42.660;23.366;2023-06-14T12:21:09;25.30;43.00
80367;DHT22;70058;42.660;23.366;2023-06-14T12:23:53;25.00;45.20
80367;DHT22;70058;42.660;23.366;2023-06-14T12:26:20;24.90;43.30
80367;DHT22;70058;42.660;23.366;2023-06-14T12:28:51;25.10;45.00
80367;DHT22;70058;42.660;23.366;2023-06-14T12:31:20;25.40;44.50
80367;DHT22;70058;42.660;23.366;2023-06-14T12:33:58;26.00;43.50
80367;DHT22;70058;42.660;23.366;2023-06-14T12:36:25;26.20;42.70
80367;DHT22;70058;42.660;23.366;2023-06-14T12:38:51;26.50;41.70
80367;DHT22;70058;42.660;23.366;2023-06-14T12:43:49;27.30;41.30
80367;DHT22;70058;42.660;23.366;2023-06-14T12:46:25;27.50;40.40
80367;DHT22;70058;42.660;23.366;2023-06-14T12:48:52;25.80;43.20
80367;DHT22;70058;42.660;23.366;2023-06-14T12:51:19;25.50;44.90
80367;DHT22;70058;42.660;23.366;2023-06-14T12:54:06;25.90;43.20
80367;DHT22;70058;42.660;23.366;2023-06-14T12:56:32;25.30;44.40
80367;DHT22;70058;42.660;23.366;2023-06-14T12:58:58;25.70;44.30
80367;DHT22;70058;42.660;23.366;2023-06-14T13:01:24;25.40;42.20
80367;DHT22;70058;42.660;23.366;2023-06-14T13:03:50;25.10;44.00
80367;DHT22;70058;42.660;23.366;2023-06-14T13:06:21;25.10;44.70
80367;DHT22;70058;42.660;23.366;2023-06-14T13:08:48;24.80;45.10
80367;DHT22;70058;42.660;23.366;2023-06-14T13:11:14;24.80;45.70
80367;DHT22;70058;42.660;23.366;2023-06-14T13:13:40;25.00;45.40
80367;DHT22;70058;42.660;23.366;2023-06-14T13:16:07;25.20;45.50
80367;DHT22;70058;42.660;23.366;2023-06-14T13:18:37;25.90;43.80
80367;DHT22;70058;42.660;23.366;2023-06-14T13:21:14;25.50;42.90
80367;DHT22;70058;42.660;23.366;2023-06-14T13:23:44;26.00;43.00
80367;DHT22;70058;42.660;23.366;2023-06-14T13:26:17;26.00;42.10
80367;DHT22;70058;42.660;23.366;2023-06-14T13:28:51;25.80;43.80
80367;DHT22;70058;42.660;23.366;2023-06-14T13:31:18;25.20;46.60
80367;DHT22;70058;42.660;23.366;2023-06-14T13:33:44;25.20;47.70
80367;DHT22;70058;42.660;23.366;2023-06-14T13:36:10;25.20;45.60
80367;DHT22;70058;42.660;23.366;2023-06-14T13:38:36;25.40;45.70
80367;DHT22;70058;42.660;23.366;2023-06-14T13:41:06;25.40;46.40
80367;DHT22;70058;42.660;23.366;2023-06-14T13:43:32;25.30;47.10
80367;DHT22;70058;42.660;23.366;2023-06-14T13:45:58;25.00;49.70
80367;DHT22;70058;42.660;23.366;2023-06-14T13:48:24;24.90;50.30
80367;DHT22;70058;42.660;23.366;2023-06-14T13:50:50;24.80;51.30
80367;DHT22;70058;42.660;23.366;2023-06-14T13:53:16;24.70;51.40
80367;DHT22;70058;42.660;23.366;2023-06-14T13:55:42;24.60;52.40
80367;DHT22;70058;42.660;23.366;2023-06-14T13:58:16;24.50;52.80
80367;DHT22;70058;42.660;23.366;2023-06-14T14:00:42;24.50;52.80
80367;DHT22;70058;42.660;23.366;2023-06-14T14:03:09;24.40;53.10
80367;DHT22;70058;42.660;23.366;2023-06-14T14:05:37;24.30;52.60
80367;DHT22;70058;42.660;23.366;2023-06-14T14:08:05;24.30;52.20
80367;DHT22;70058;42.660;23.366;2023-06-14T14:10:31;24.30;51.90
80367;DHT22;70058;42.660;23.366;2023-06-14T14:12:58;24.40;51.20
80367;DHT22;70058;42.660;23.366;2023-06-14T14:15:25;24.30;50.80
80367;DHT22;70058;42.660;23.366;2023-06-14T14:17:51;24.20;51.00
80367;DHT22;70058;42.660;23.366;2023-06-14T14:20:18;24.10;51.40
80367;DHT22;70058;42.660;23.366;2023-06-14T14:22:44;24.20;52.20
80367;DHT22;70058;42.660;23.366;2023-06-14T14:25:10;24.20;52.20
80367;DHT22;70058;42.660;23.366;2023-06-14T14:27:36;24.10;50.60
80367;DHT22;70058;42.660;23.366;2023-06-14T14:30:03;23.50;51.30
80367;DHT22;70058;42.660;23.366;2023-06-14T14:32:30;23.40;52.40
80367;DHT22;70058;42.660;23.366;2023-06-14T14:34:55;23.60;52.10
80367;DHT22;70058;42.660;23.366;2023-06-14T14:37:21;23.70;52.80
80367;DHT22;70058;42.660;23.366;2023-06-14T14:39:51;23.30;54.30
80367;DHT22;70058;42.660;23.366;2023-06-14T14:42:16;22.50;57.80
80367;DHT22;70058;42.660;23.366;2023-06-14T14:44:43;22.80;58.00
80367;DHT22;70058;42.660;23.366;2023-06-14T14:47:10;23.20;56.70
80367;DHT22;70058;42.660;23.366;2023-06-14T14:49:36;22.70;57.00
80367;DHT22;70058;42.660;23.366;2023-06-14T14:52:01;22.30;58.70
80367;DHT22;70058;42.660;23.366;2023-06-14T14:54:28;21.80;59.20
80367;DHT22;70058;42.660;23.366;2023-06-14T14:56:55;21.90;60.00
80367;DHT22;70058;42.660;23.366;2023-06-14T14:59:33;21.90;62.00
80367;DHT22;70058;42.660;23.366;2023-06-14T15:02:03;21.50;60.50
80367;DHT22;70058;42.660;23.366;2023-06-14T15:04:31;21.60;64.00
80367;DHT22;70058;42.660;23.366;2023-06-14T15:06:57;21.00;62.40
80367;DHT22;70058;42.660;23.366;2023-06-14T15:09:23;21.10;62.70
80367;DHT22;70058;42.660;23.366;2023-06-14T15:11:50;21.40;62.10
80367;DHT22;70058;42.660;23.366;2023-06-14T15:14:18;21.60;61.50
80367;DHT22;70058;42.660;23.366;2023-06-14T15:16:44;21.30;62.10
80367;DHT22;70058;42.660;23.366;2023-06-14T15:19:10;21.00;63.40
80367;DHT22;70058;42.660;23.366;2023-06-14T15:21:36;21.30;63.40
80367;DHT22;70058;42.660;23.366;2023-06-14T15:24:01;21.70;61.20
80367;DHT22;70058;42.660;23.366;2023-06-14T15:26:27;21.80;61.20
80367;DHT22;70058;42.660;23.366;2023-06-14T15:28:54;21.30;61.20
80367;DHT22;70058;42.660;23.366;2023-06-14T15:31:20;21.10;61.80
80367;DHT22;70058;42.660;23.366;2023-06-14T15:33:46;21.10;62.00
80367;DHT22;70058;42.660;23.366;2023-06-14T15:36:11;20.90;63.10
80367;DHT22;70058;42.660;23.366;2023-06-14T15:38:37;21.10;62.80
80367;DHT22;70058;42.660;23.366;2023-06-14T15:41:03;21.10;63.00
80367;DHT22;70058;42.660;23.366;2023-06-14T15:43:29;21.30;61.80
80367;DHT22;70058;42.660;23.366;2023-06-14T15:45:54;21.60;61.00
80367;DHT22;70058;42.660;23.366;2023-06-14T15:48:20;21.90;60.50
80367;DHT22;70058;42.660;23.366;2023-06-14T15:50:46;21.50;60.90